Time;durP1;ratioP1;P1;durP2;ratioP2;P2;SDS_P1;SDS_P2;PMS_P1;PMS_P2;Temp;Humidity;BMP_temperature;BMP_pressure;BME280_temperature;BME280_humidity;BME280_pressure;Samples;Min_cycle;Max_cycle;Signal;HPM_P1;HPM_P2
2022/01/11 00:00:41;;;;;;;21.97;12.57;;;6.20;91.30;;;6.35;62.89;99897.56;4950378;28;124067;-84
2022/01/11 00:03:08;;;;;;;23.60;13.10;;;5.80;91.10;;;6.34;62.25;99902.25;4965300;28;123127;-84
2022/01/11 00:05:43;;;;;;;22.57;11.90;;;5.80;91.10;;;6.34;62.62;99907.72;4949899;28;115348;-85
2022/01/11 00:08:12;;;;;;;20.70;13.13;;;5.80;91.10;;;6.37;62.39;99909.13;4963582;28;114277;-84
2022/01/11 00:10:49;;;;;;;17.53;11.20;;;5.80;91.10;;;6.38;62.64;99897.88;4950955;28;123265;-85
2022/01/11 00:13:19;;;;;;;19.90;13.37;;;5.80;91.20;;;6.41;62.12;99896.53;4956082;28;123686;-85
2022/01/11 00:15:48;;;;;;;23.27;12.50;;;5.80;91.20;;;6.39;62.05;99890.47;4952922;28;113272;-85
2022/01/11 00:18:15;;;;;;;21.13;11.70;;;5.80;91.10;;;6.38;62.58;99892.38;4964231;28;114379;-87
2022/01/11 00:20:42;;;;;;;25.20;12.57;;;5.90;91.20;;;6.38;62.24;99891.56;4950150;28;124557;-85
2022/01/11 00:25:44;;;;;;;21.13;12.23;;;5.80;91.20;;;6.45;62.92;99888.59;4953202;28;114597;-84
2022/01/11 00:28:14;;;;;;;22.30;12.33;;;5.90;91.20;;;6.43;62.03;99888.88;4937227;28;112559;-85
2022/01/11 00:30:41;;;;;;;17.60;11.00;;;5.90;91.20;;;6.44;62.88;99890.53;4980877;28;126993;-84
2022/01/11 00:33:18;;;;;;;25.93;12.40;;;6.00;91.20;;;6.45;62.77;99888.59;4961777;28;123166;-84
2022/01/11 00:35:56;;;;;;;16.37;10.57;;;5.90;91.20;;;6.43;62.28;99888.06;4937616;28;114652;-85
2022/01/11 00:38:26;;;;;;;23.43;11.30;;;5.90;91.10;;;6.43;62.33;99897.09;4961455;28;113287;-84
2022/01/11 00:40:57;;;;;;;18.73;10.90;;;5.90;91.20;;;6.44;62.34;99901.50;4949717;28;124407;-85
2022/01/11 00:43:26;;;;;;;18.40;10.87;;;5.90;91.10;;;6.44;62.99;99904.25;4946939;28;124082;-85
2022/01/11 00:45:55;;;;;;;20.73;11.53;;;5.90;91.10;;;6.46;62.45;99904.00;4940720;28;114178;-85
2022/01/11 00:48:22;;;;;;;17.53;11.13;;;5.90;91.20;;;6.44;62.15;99896.00;4965273;28;112987;-85
2022/01/11 00:50:50;;;;;;;18.53;11.77;;;5.90;91.20;;;6.44;62.57;99907.00;4950986;28;123843;-85
2022/01/11 00:53:18;;;;;;;23.97;12.50;;;5.90;91.20;;;6.44;62.47;99903.41;4949184;28;122849;-86
2022/01/11 00:55:48;;;;;;;19.43;11.50;;;6.00;91.20;;;6.44;62.41;99900.69;4935437;28;114980;-86
2022/01/11 00:58:16;;;;;;;17.07;12.10;;;5.90;91.20;;;6.41;62.78;99913.00;4950438;28;114933;-86
2022/01/11 01:00:42;;;;;;;21.73;11.63;;;5.90;91.20;;;6.40;62.21;99911.34;4953886;28;123869;-86
2022/01/11 01:03:09;;;;;;;27.90;16.20;;;5.90;91.20;;;6.40;62.89;99912.19;4950643;28;123682;-85
2022/01/11 01:05:36;;;;;;;27.40;16.17;;;5.90;91.20;;;6.40;62.83;99923.16;4947513;28;114066;-85
2022/01/11 01:08:03;;;;;;;26.60;14.77;;;7.40;91.90;;;6.40;62.40;99916.84;4954241;28;114030;-86
2022/01/11 01:10:35;;;;;;;22.70;13.37;;;5.80;91.30;;;6.41;62.67;99919.31;4950348;28;124038;-85
2022/01/11 01:13:08;;;;;;;22.43;12.47;;;5.90;91.30;;;6.43;62.91;99921.81;4953320;28;124295;-86
2022/01/11 01:15:35;;;;;;;19.27;11.83;;;6.00;91.40;;;6.43;62.46;99912.75;4937385;28;114745;-86
2022/01/11 01:18:10;;;;;;;15.17;10.03;;;5.90;91.30;;;6.44;63.04;99923.47;4968487;28;114570;-86
2022/01/11 01:20:37;;;;;;;20.40;12.57;;;5.90;91.30;;;6.45;62.92;99919.66;4978649;28;124592;-86
2022/01/11 01:23:04;;;;;;;21.10;11.80;;;5.90;91.30;;;6.45;62.74;99914.16;4949177;28;123947;-86
2022/01/11 01:25:31;;;;;;;15.90;9.97;;;5.90;91.30;;;6.45;62.57;99916.91;4956925;28;113367;-86
2022/01/11 01:27:58;;;;;;;16.30;10.37;;;5.90;91.30;;;6.45;62.90;99929.78;4952077;28;114308;-85
2022/01/11 01:30:25;;;;;;;25.50;11.60;;;6.30;91.40;;;6.45;62.79;99927.03;4955413;28;124103;-86
2022/01/11 01:32:53;;;;;;;20.10;13.40;;;5.90;91.20;;;6.44;62.13;99923.47;4950506;28;123773;-86
2022/01/11 01:35:23;;;;;;;17.80;11.43;;;5.90;91.20;;;6.46;62.29;99926.78;4951872;28;114280;-85
2022/01/11 01:37:50;;;;;;;13.17;10.37;;;5.90;91.20;;;6.46;62.33;99924.03;4960562;28;114030;-85
2022/01/11 01:40:17;;;;;;;23.70;11.60;;;5.90;91.20;;;6.47;62.46;99931.19;4949835;28;122940;-86
2022/01/11 01:42:47;;;;;;;23.60;12.10;;;6.00;91.20;;;6.48;62.96;99932.84;4948897;28;123751;-86
2022/01/11 01:45:14;;;;;;;20.07;12.07;;;6.10;91.30;;;6.49;62.43;99942.75;4966983;28;115162;-86
2022/01/11 01:47:41;;;;;;;21.13;11.33;;;6.00;91.20;;;6.48;62.61;99938.34;4962203;28;114167;-86
2022/01/11 01:50:09;;;;;;;21.83;11.63;;;6.10;91.50;;;6.48;62.72;99952.06;4981723;28;123077;-86
2022/01/11 01:52:36;;;;;;;18.70;10.77;;;5.90;91.40;;;6.49;62.59;99948.22;4955384;28;122281;-87
2022/01/11 01:55:05;;;;;;;18.53;12.97;;;6.00;91.10;;;6.49;62.03;99944.66;4953333;28;114489;-85
2022/01/11 01:57:32;;;;;;;23.30;12.43;;;5.90;91.10;;;6.47;62.31;99942.16;4954887;28;113417;-86
2022/01/11 02:00:03;;;;;;;25.73;13.73;;;6.10;91.20;;;6.44;62.74;99939.94;4960234;28;123572;-84
2022/01/11 02:02:30;;;;;;;23.27;13.70;;;5.90;91.10;;;6.41;62.78;99951.44;4958282;28;123840;-86
2022/01/11 02:04:57;;;;;;;20.10;12.33;;;5.90;91.10;;;6.36;62.25;99943.97;4957480;28;113882;-84
2022/01/11 02:07:25;;;;;;;21.23;11.70;;;5.80;91.10;;;6.36;62.78;99943.13;4950170;28;114007;-86
2022/01/11 02:09:52;;;;;;;22.50;12.40;;;5.80;91.10;;;6.35;62.46;99946.97;4980216;28;123646;-88
2022/01/11 02:12:19;;;;;;;20.03;12.70;;;5.90;91.10;;;6.35;62.21;99953.28;4971101;28;123570;-86
2022/01/11 02:14:45;;;;;;;15.93;10.17;;;5.90;91.10;;;6.36;62.77;99943.97;4948234;28;114756;-87
2022/01/11 02:17:12;;;;;;;24.07;13.27;;;5.90;91.10;;;6.39;62.52;99948.97;4947423;28;113756;-86
2022/01/11 02:19:39;;;;;;;22.40;12.20;;;6.50;91.40;;;6.40;62.06;99949.78;4947988;28;123947;-85
2022/01/11 02:22:05;;;;;;;19.80;12.27;;;5.90;91.10;;;6.40;62.49;99950.59;4956189;28;123178;-87
2022/01/11 02:24:33;;;;;;;24.33;12.10;;;5.90;91.20;;;6.42;62.21;99947.59;4956553;28;114227;-86
2022/01/11 02:27:00;;;;;;;18.77;11.90;;;5.90;91.20;;;6.44;62.93;99945.44;4951268;28;114173;-86
2022/01/11 02:29:28;;;;;;;22.47;12.67;;;5.90;91.20;;;6.44;62.12;99939.94;4971331;28;123517;-86
2022/01/11 02:31:55;;;;;;;20.73;12.87;;;5.90;91.20;;;6.43;62.25;99943.78;4955190;28;123769;-84
2022/01/11 02:34:22;;;;;;;18.27;12.13;;;5.90;91.20;;;6.43;62.44;99960.25;4944089;28;115017;-86
2022/01/11 02:36:48;;;;;;;17.57;11.07;;;5.90;91.50;;;6.43;62.91;99951.19;4941588;28;114612;-87
2022/01/11 02:39:16;;;;;;;25.47;11.30;;;6.00;91.20;;;6.43;62.55;99949.25;4951528;28;124061;-86
2022/01/11 02:41:57;;;;;;;17.83;11.57;;;5.90;91.10;;;6.47;62.37;99946.81;4952978;28;121827;-86
2022/01/11 02:44:24;;;;;;;15.37;10.40;;;5.90;91.20;;;6.45;62.42;99949.00;4933536;28;113492;-86
2022/01/11 02:46:50;;;;;;;20.23;11.80;;;5.90;91.20;;;6.43;63.01;99943.78;4952974;28;113188;-87
2022/01/11 02:49:17;;;;;;;21.47;11.80;;;5.90;91.20;;;6.44;62.46;99950.91;4966831;28;124175;-86
2022/01/11 02:51:45;;;;;;;18.93;11.67;;;5.90;91.10;;;6.43;62.47;99943.78;4958712;28;122690;-85
2022/01/11 02:54:12;;;;;;;16.63;9.90;;;5.90;91.10;;;6.43;62.99;99941.03;4949048;28;113422;-85
2022/01/11 02:56:38;;;;;;;14.87;9.77;;;5.90;91.10;;;6.44;62.70;99950.09;4955862;28;114060;-87
2022/01/11 02:59:05;;;;;;;14.60;10.27;;;6.30;91.30;;;6.45;62.28;99951.75;4956110;28;123842;-86
2022/01/11 03:01:32;;;;;;;16.60;10.67;;;5.90;91.10;;;6.45;62.63;99947.09;4948283;28;122938;-87
2022/01/11 03:03:58;;;;;;;15.93;10.63;;;6.00;91.10;;;6.45;62.40;99951.75;4948871;28;114294;-85
2022/01/11 03:06:25;;;;;;;22.80;11.40;;;5.90;91.10;;;6.45;62.28;99944.34;4958583;28;114032;-85
2022/01/11 03:08:52;;;;;;;21.10;11.93;;;5.90;91.10;;;6.44;62.54;99942.69;4950831;28;123905;-87
2022/01/11 03:11:21;;;;;;;16.60;11.97;;;5.90;91.10;;;6.44;62.74;99945.44;4949120;28;123793;-85
2022/01/11 03:13:48;;;;;;;25.07;13.80;;;5.90;91.10;;;6.43;61.85;99943.78;4965396;28;112394;-86
2022/01/11 03:16:16;;;;;;;27.13;12.13;;;5.90;91.00;;;6.43;62.65;99946.53;4956075;28;113482;-86
2022/01/11 03:18:44;;;;;;;19.60;10.70;;;5.90;91.00;;;6.42;62.59;99944.84;4950344;28;122972;-86
2022/01/11 03:21:11;;;;;;;22.43;11.90;;;5.90;91.00;;;6.41;62.00;99945.94;4958735;28;123582;-85
2022/01/11 03:23:38;;;;;;;19.33;11.47;;;5.90;91.00;;;6.40;61.60;99950.59;4953210;28;114781;-85
2022/01/11 03:26:05;;;;;;;19.37;11.43;;;5.90;91.00;;;6.39;62.69;99948.09;4950069;28;115100;-84
2022/01/11 03:28:32;;;;;;;18.27;11.80;;;5.90;91.00;;;6.39;62.06;99942.63;4948132;28;123078;-85
2022/01/11 03:31:00;;;;;;;22.50;12.10;;;5.90;91.00;;;6.39;62.45;99951.72;4983435;28;123795;-85
2022/01/11 03:33:28;;;;;;;17.20;10.80;;;5.90;91.00;;;6.37;62.09;99950.31;4951165;28;113509;-84
2022/01/11 03:35:55;;;;;;;18.60;11.40;;;5.90;91.00;;;6.37;62.56;99950.31;4956811;28;113218;-86
2022/01/11 03:38:22;;;;;;;19.87;11.63;;;5.90;91.00;;;6.35;62.11;99953.28;4951153;28;123308;-85
2022/01/11 03:40:51;;;;;;;16.47;11.50;;;5.90;91.00;;;6.36;62.17;99959.59;4947873;28;122732;-85
2022/01/11 03:43:21;;;;;;;23.10;11.10;;;6.50;91.20;;;6.34;62.50;99954.38;4949171;28;114590;-85
2022/01/11 03:45:49;;;;;;;19.73;11.17;;;5.90;91.00;;;6.34;61.87;99956.28;4935253;28;113377;-87
2022/01/11 03:48:16;;;;;;;19.37;11.07;;;5.80;90.90;;;6.35;62.16;99966.19;4946401;28;124285;-87
2022/01/11 03:50:48;;;;;;;21.50;12.73;;;5.80;90.90;;;6.34;61.51;99961.78;4952180;28;123659;-86
2022/01/11 03:53:16;;;;;;;20.60;11.37;;;5.80;90.90;;;6.33;62.39;99960.13;4951025;28;115228;-86
2022/01/11 03:58:12;;;;;;;19.17;11.93;;;5.80;90.90;;;6.33;62.55;99971.91;4953756;28;123842;-85
2022/01/11 04:00:39;;;;;;;19.30;11.30;;;5.80;90.90;;;6.34;62.23;99967.25;4982974;28;124138;-85
2022/01/11 04:03:06;;;;;;;19.50;11.53;;;5.80;91.00;;;6.34;62.39;99975.50;4951561;28;113912;-86
2022/01/11 04:05:32;;;;;;;18.97;11.90;;;5.80;91.00;;;6.35;62.44;99969.75;4950538;28;112830;-84
2022/01/11 04:07:59;;;;;;;18.10;11.60;;;5.90;91.00;;;6.36;62.56;99968.66;4950238;28;124327;-86
2022/01/11 04:10:26;;;;;;;20.60;11.80;;;5.80;91.00;;;6.37;62.28;99977.75;4953499;28;123497;-86
2022/01/11 04:12:53;;;;;;;22.00;12.27;;;5.90;91.00;;;6.37;62.17;99973.09;4950487;28;114979;-86
2022/01/11 04:15:21;;;;;;;20.70;12.70;;;5.80;91.00;;;6.38;62.54;99973.91;4954798;28;115658;-86
2022/01/11 04:17:48;;;;;;;20.10;12.20;;;5.80;91.00;;;6.38;61.62;99973.91;4953281;28;123845;-84
2022/01/11 04:20:15;;;;;;;23.23;12.80;;;5.80;91.00;;;6.40;62.68;99977.22;4966296;28;121792;-84
2022/01/11 04:22:41;;;;;;;24.17;11.97;;;5.90;91.10;;;6.39;62.21;99970.06;4945245;28;114166;-86
2022/01/11 04:25:08;;;;;;;20.77;12.10;;;5.80;91.10;;;6.40;62.10;99966.25;4960547;28;113332;-85
2022/01/11 04:27:35;;;;;;;17.60;11.70;;;5.90;91.10;;;6.39;62.15;99972.81;4978574;28;124080;-85
2022/01/11 04:30:02;;;;;;;17.00;11.77;;;5.90;91.10;;;6.40;61.96;99966.25;4949973;28;124505;-86
2022/01/11 04:32:30;;;;;;;18.63;11.97;;;5.90;91.10;;;6.40;62.73;99974.50;4953282;28;112787;-85
2022/01/11 04:34:58;;;;;;;21.33;12.90;;;5.90;91.10;;;6.39;62.46;99975.56;4945444;28;113947;-86
2022/01/11 04:37:24;;;;;;;25.30;12.80;;;5.90;91.10;;;6.40;62.75;99979.97;4964042;28;123959;-85
2022/01/11 04:39:51;;;;;;;19.03;12.20;;;6.10;91.20;;;6.40;62.49;99988.22;4982737;28;123670;-86
2022/01/11 04:42:17;;;;;;;23.10;12.80;;;5.90;91.10;;;6.40;62.82;99988.22;4949709;28;114125;-86
2022/01/11 04:44:44;;;;;;;23.33;12.30;;;5.90;91.10;;;6.40;62.41;99993.72;4951937;28;113759;-86
2022/01/11 04:47:10;;;;;;;19.07;11.27;;;5.90;91.10;;;6.40;62.00;99990.97;4948839;28;123859;-82
2022/01/11 04:49:37;;;;;;;21.00;12.70;;;6.00;91.20;;;6.39;62.94;99984.66;4924391;28;122792;-86
2022/01/11 04:52:04;;;;;;;20.07;11.53;;;5.90;91.10;;;6.40;62.63;99991.78;4960865;28;114176;-85
2022/01/11 04:54:30;;;;;;;18.77;11.10;;;5.90;91.10;;;6.40;62.15;99993.72;4952794;28;113629;-85
2022/01/11 04:56:57;;;;;;;17.10;11.60;;;5.90;91.10;;;6.41;62.29;100003.59;4950851;28;123921;-85
2022/01/11 04:59:24;;;;;;;22.20;13.53;;;5.90;91.10;;;6.41;62.13;100004.41;4943877;28;124182;-85
2022/01/11 05:01:53;;;;;;;22.63;12.90;;;5.90;91.20;;;6.41;62.76;100012.66;4950452;28;115207;-86
2022/01/11 05:04:20;;;;;;;19.83;13.67;;;5.90;91.20;;;6.40;62.56;100007.44;4950963;28;115572;-84
2022/01/11 05:06:46;;;;;;;20.00;12.77;;;5.90;91.10;;;6.39;62.69;100003.00;4949536;28;124626;-85
2022/01/11 05:09:14;;;;;;;24.10;13.33;;;5.90;91.10;;;6.38;62.66;100001.34;4953250;28;123285;-86
2022/01/11 05:11:40;;;;;;;25.13;12.20;;;5.80;91.10;;;6.38;62.08;100006.84;4952309;28;113412;-86
2022/01/11 05:14:07;;;;;;;24.07;12.83;;;5.80;91.10;;;6.37;62.65;100011.50;4950775;28;113098;-86
2022/01/11 05:16:33;;;;;;;22.07;12.30;;;5.90;91.10;;;6.35;62.45;100012.84;4964482;28;124005;-86
2022/01/11 05:19:00;;;;;;;19.50;12.53;;;5.90;91.10;;;6.34;62.10;100008.44;4953757;28;123865;-86
2022/01/11 05:21:26;;;;;;;22.03;13.60;;;5.80;91.00;;;6.33;62.88;100010.34;4953210;28;113479;-85
2022/01/11 05:23:52;;;;;;;29.97;13.10;;;5.80;91.10;;;6.33;62.21;100004.03;4949839;28;113869;-86
2022/01/11 05:26:19;;;;;;;20.33;12.30;;;5.80;91.00;;;6.32;62.61;100008.69;4936427;28;123103;-86
2022/01/11 05:28:45;;;;;;;21.57;13.33;;;5.80;91.00;;;6.30;62.54;100016.34;4958345;28;122746;-86
2022/01/11 05:31:12;;;;;;;16.03;11.40;;;5.80;91.00;;;6.28;62.20;100017.69;4981990;28;114461;-84
2022/01/11 05:33:38;;;;;;;19.00;12.07;;;5.80;91.00;;;6.26;62.19;100019.84;4953344;28;114077;-86
2022/01/11 05:36:05;;;;;;;23.60;12.73;;;5.70;90.90;;;6.23;62.77;100023.09;4949001;28;123945;-84
2022/01/11 05:38:32;;;;;;;20.87;12.57;;;5.90;91.00;;;6.18;62.24;100024.72;4958549;28;122992;-85
2022/01/11 05:40:58;;;;;;;18.40;11.40;;;5.70;90.90;;;6.14;62.33;100029.03;4951270;28;114315;-86
2022/01/11 05:43:26;;;;;;;22.53;12.10;;;5.70;91.20;;;6.13;62.58;100024.63;4950320;28;114001;-86
2022/01/11 05:45:52;;;;;;;20.10;12.13;;;5.70;90.90;;;6.11;62.33;100021.31;4974515;28;122254;-85
2022/01/11 05:48:20;;;;;;;18.90;11.40;;;5.70;90.90;;;6.10;62.61;100025.16;4950119;28;123801;-84
2022/01/11 05:50:47;;;;;;;21.17;11.63;;;5.60;90.90;;;6.09;62.46;100031.69;4948960;28;115189;-87
2022/01/11 05:53:13;;;;;;;20.33;12.57;;;5.60;90.90;;;6.10;62.88;100038.88;4957973;28;114881;-84
2022/01/11 05:55:40;;;;;;;22.67;11.80;;;5.60;91.00;;;6.10;62.59;100033.38;4948000;28;123935;-84
2022/01/11 05:58:08;;;;;;;21.20;12.07;;;5.60;91.00;;;6.13;62.65;100040.28;4942213;28;123028;-85
2022/01/11 06:00:34;;;;;;;18.73;12.23;;;5.60;91.00;;;6.14;62.77;100040.00;4981624;28;113880;-86
2022/01/11 06:03:02;;;;;;;16.90;11.03;;;5.60;91.00;;;6.15;62.82;100058.16;4948972;28;113857;-86
2022/01/11 06:05:28;;;;;;;23.90;12.10;;;5.60;91.10;;;6.16;62.60;100048.81;4944087;28;124027;-86
2022/01/11 06:07:55;;;;;;;20.67;13.47;;;5.60;91.10;;;6.18;62.43;100056.81;4935139;28;121913;-84
2022/01/11 06:10:22;;;;;;;22.80;13.50;;;5.60;91.10;;;6.18;62.26;100065.88;4945941;28;113564;-85
2022/01/11 06:12:49;;;;;;;19.73;12.20;;;5.70;91.10;;;6.20;62.74;100071.91;4946923;28;113015;-85
2022/01/11 06:15:16;;;;;;;19.00;12.53;;;5.60;91.10;;;6.22;62.77;100073.59;4939096;28;122964;-85
2022/01/11 06:17:43;;;;;;;18.00;10.93;;;5.60;91.10;;;6.24;62.12;100065.94;4947427;28;123131;-87
2022/01/11 06:20:10;;;;;;;18.23;12.03;;;5.70;91.20;;;6.25;62.49;100073.09;4947082;28;114515;-85
2022/01/11 06:22:37;;;;;;;19.43;12.50;;;5.70;91.20;;;6.26;62.50;100069.25;4957179;28;112879;-86
2022/01/11 06:25:05;;;;;;;19.63;11.50;;;5.70;91.20;;;6.30;62.81;100070.41;4938708;28;124725;-85
2022/01/11 06:27:33;;;;;;;15.63;9.63;;;5.70;91.50;;;6.41;63.68;100069.47;4946153;28;123362;-87
2022/01/11 06:30:00;;;;;;;19.63;11.47;;;5.70;91.80;;;6.58;64.31;100078.50;4946579;28;114968;-87
2022/01/11 06:32:26;;;;;;;19.00;10.60;;;5.80;92.20;;;6.71;64.17;100071.78;4947492;28;114024;-85
2022/01/11 06:34:53;;;;;;;21.23;12.47;;;5.90;92.50;;;6.81;63.95;100079.31;4953254;28;124215;-87
2022/01/11 06:37:20;;;;;;;19.70;11.60;;;6.00;92.60;;;6.84;63.87;100076.88;4950593;28;123832;-86
2022/01/11 06:39:47;;;;;;;21.10;12.67;;;6.10;92.60;;;6.81;64.02;100080.16;4950498;28;113706;-87
2022/01/11 06:42:13;;;;;;;23.03;13.67;;;6.40;92.50;;;6.79;63.89;100078.75;4955313;28;114831;-86
2022/01/11 06:44:41;;;;;;;23.50;12.90;;;6.10;92.30;;;6.75;63.93;100083.09;4947736;28;124030;-86
2022/01/11 06:47:09;;;;;;;18.50;12.10;;;6.10;92.20;;;6.71;63.25;100082.75;4935110;28;122688;-84
2022/01/11 06:49:35;;;;;;;24.93;13.40;;;6.10;92.10;;;6.68;63.46;100079.72;4946018;28;112761;-85
2022/01/11 06:52:03;;;;;;;19.30;13.40;;;6.10;92.00;;;6.63;63.64;100081.28;4941834;28;114107;-87
2022/01/11 06:54:30;;;;;;;24.73;13.50;;;6.00;91.90;;;6.61;63.01;100083.47;4946191;28;123731;-83
2022/01/11 06:56:56;;;;;;;22.83;13.60;;;6.00;91.80;;;6.58;63.42;100081.25;4953466;28;123748;-86
2022/01/11 06:59:23;;;;;;;20.07;12.00;;;6.00;91.80;;;6.58;63.58;100089.50;4968432;28;113190;-86
2022/01/11 07:01:50;;;;;;;23.43;12.67;;;6.20;91.80;;;6.56;62.93;100094.41;4965650;28;114105;-85
2022/01/11 07:04:16;;;;;;;22.43;13.00;;;6.00;91.70;;;6.54;63.42;100099.31;4945838;28;124205;-85
2022/01/11 07:06:43;;;;;;;20.73;12.37;;;6.00;91.60;;;6.54;62.87;100107.53;4944562;28;124150;-85
2022/01/11 07:09:10;;;;;;;21.30;13.43;;;6.00;91.60;;;6.53;63.34;100094.91;4946054;28;114183;-83
2022/01/11 07:11:38;;;;;;;20.60;11.57;;;6.00;91.60;;;6.52;63.05;100104.22;4947974;28;114428;-85
2022/01/11 07:14:04;;;;;;;27.30;13.27;;;6.00;91.60;;;6.52;63.30;100103.38;4945302;28;124568;-87
2022/01/11 07:16:31;;;;;;;17.23;12.33;;;6.00;91.50;;;6.50;62.91;100109.16;4938321;28;124227;-84
2022/01/11 07:18:57;;;;;;;22.43;12.93;;;5.90;91.50;;;6.50;62.56;100113.78;4948752;28;113180;-83
2022/01/11 07:21:24;;;;;;;22.10;12.80;;;5.90;91.40;;;6.49;62.83;100112.13;4948372;28;114408;-87
2022/01/11 07:23:50;;;;;;;21.07;12.50;;;5.90;91.40;;;6.49;62.61;100118.44;4951404;28;124006;-85
2022/01/11 07:26:17;;;;;;;20.93;12.80;;;5.90;91.40;;;6.49;62.58;100110.22;4946862;28;123824;-84
2022/01/11 07:28:43;;;;;;;25.70;13.10;;;5.90;91.40;;;6.49;63.02;100123.13;4947973;28;115088;-87
2022/01/11 07:31:10;;;;;;;19.40;12.17;;;6.00;91.40;;;6.47;63.09;100117.88;4953872;28;114884;-86
2022/01/11 07:33:36;;;;;;;22.57;13.47;;;5.90;91.40;;;6.47;62.82;100120.59;4958189;28;123862;-85
2022/01/11 07:36:06;;;;;;;28.90;13.83;;;5.90;91.40;;;6.47;62.80;100128.84;4948645;28;123842;-83
2022/01/11 07:38:32;;;;;;;27.97;13.20;;;5.90;91.40;;;6.47;62.77;100131.59;4945796;28;114646;-87
2022/01/11 07:40:59;;;;;;;20.07;12.27;;;5.90;91.40;;;6.48;62.44;100133.28;4947701;28;113990;-87
2022/01/11 07:43:25;;;;;;;19.33;11.77;;;5.90;91.50;;;6.48;63.06;100143.44;4958583;28;124314;-86
2022/01/11 07:45:52;;;;;;;23.23;11.80;;;5.90;91.50;;;6.49;62.70;100134.91;4967706;28;122605;-86
2022/01/11 07:48:18;;;;;;;19.13;12.17;;;5.90;91.50;;;6.50;62.74;100142.09;4932827;28;113098;-86
2022/01/11 07:50:45;;;;;;;20.20;12.50;;;5.90;91.50;;;6.52;62.79;100139.06;4946054;28;114436;-86
2022/01/11 07:53:11;;;;;;;24.90;13.67;;;5.90;91.50;;;6.53;62.27;100141.59;4948332;28;124435;-86
2022/01/11 07:55:38;;;;;;;19.80;11.73;;;5.90;91.50;;;6.50;62.92;100131.09;4950075;28;123697;-85
2022/01/11 07:58:05;;;;;;;24.60;14.73;;;6.00;91.50;;;6.50;62.78;100142.09;4957192;28;113715;-86
2022/01/11 08:00:31;;;;;;;25.30;15.07;;;5.90;91.40;;;6.49;62.19;100147.81;4950184;28;114213;-88
2022/01/11 08:02:58;;;;;;;25.43;13.00;;;5.90;91.40;;;6.47;63.14;100147.22;4947529;28;123990;-85
2022/01/11 08:05:24;;;;;;;23.63;14.17;;;5.90;91.40;;;6.45;62.25;100153.00;4939196;28;124556;-88
2022/01/11 08:07:51;;;;;;;31.63;14.23;;;5.90;91.40;;;6.41;62.36;100147.16;4955333;28;114162;-85
2022/01/11 08:10:18;;;;;;;19.87;12.50;;;5.90;91.40;;;6.40;62.96;100147.44;4974274;28;113566;-84
2022/01/11 08:12:45;;;;;;;20.07;11.40;;;5.80;91.40;;;6.42;62.71;100145.22;4956067;28;124942;-87
2022/01/11 08:15:12;;;;;;;20.30;13.87;;;6.10;91.50;;;6.46;62.06;100157.38;4959239;28;123398;-88
2022/01/11 08:17:40;;;;;;;19.53;11.50;;;5.90;91.40;;;6.46;62.57;100162.88;4938470;28;115676;-84
2022/01/11 08:20:08;;;;;;;20.43;11.87;;;5.90;91.40;;;6.48;62.85;100168.13;4942948;28;115529;-85
2022/01/11 08:22:35;;;;;;;17.23;11.13;;;5.90;91.40;;;6.50;62.10;100166.81;4942635;28;125774;-84
2022/01/11 08:25:03;;;;;;;24.57;12.10;;;5.90;91.40;;;6.52;62.87;100167.34;4945332;28;123940;-86
2022/01/11 08:27:33;;;;;;;20.53;13.23;;;5.90;91.40;;;6.55;62.79;100166.84;4956096;28;113956;-84
2022/01/11 08:30:05;;;;;;;19.50;13.17;;;6.00;91.40;;;6.59;62.05;100172.69;4947442;28;114807;-87
2022/01/11 08:32:33;;;;;;;21.40;12.20;;;6.00;91.40;;;6.62;62.20;100175.75;4954685;28;123594;-88
2022/01/11 08:34:59;;;;;;;18.20;11.80;;;6.00;91.40;;;6.64;61.97;100170.84;4953298;28;123771;-87
2022/01/11 08:37:26;;;;;;;26.83;13.73;;;6.10;91.40;;;6.65;62.81;100177.16;4946503;28;114027;-85
2022/01/11 08:39:53;;;;;;;22.77;12.17;;;6.10;91.30;;;6.61;62.11;100168.59;4947526;28;114180;-86
2022/01/11 08:42:20;;;;;;;21.17;13.30;;;6.20;91.30;;;6.57;62.29;100175.69;4934796;28;123509;-87
2022/01/11 08:44:49;;;;;;;22.57;13.33;;;6.00;91.20;;;6.55;62.05;100177.84;4942394;28;123905;-86
2022/01/11 08:47:17;;;;;;;21.90;11.57;;;6.20;91.30;;;6.55;61.90;100175.09;4947221;28;113981;-88
2022/01/11 08:49:45;;;;;;;15.43;10.53;;;6.00;91.20;;;6.57;62.32;100175.69;4946919;28;114298;-87
2022/01/11 08:52:12;;;;;;;18.27;11.30;;;6.00;91.20;;;6.60;62.29;100185.31;4932935;28;123223;-86
2022/01/11 08:54:39;;;;;;;23.10;13.73;;;6.00;91.20;;;6.63;61.75;100184.81;4946382;28;125520;-84
2022/01/11 08:57:06;;;;;;;22.23;13.23;;;6.00;91.20;;;6.64;62.38;100179.09;4946669;28;114643;-87
2022/01/11 08:59:33;;;;;;;18.27;12.97;;;6.00;91.10;;;6.65;62.19;100179.91;4949015;28;114031;-83
2022/01/11 09:02:04;;;;;;;20.13;11.77;;;6.00;91.10;;;6.66;62.07;100180.72;4945804;28;123789;-86
2022/01/11 09:04:31;;;;;;;19.60;12.40;;;6.10;91.20;;;6.69;61.89;100185.72;4966500;28;123690;-82
2022/01/11 09:06:58;;;;;;;21.10;12.90;;;7.30;91.70;;;6.71;61.82;100191.78;4944746;28;115001;-82
2022/01/11 09:09:26;;;;;;;17.33;11.77;;;6.10;91.20;;;6.74;62.47;100196.78;4960373;28;115305;-82
2022/01/11 09:11:53;;;;;;;19.40;12.17;;;7.00;91.60;;;6.77;62.21;100196.25;4949504;28;124058;-80
2022/01/11 09:14:20;;;;;;;20.30;13.70;;;6.20;91.20;;;6.79;61.82;100203.16;4981536;28;122930;-84
2022/01/11 09:16:46;;;;;;;22.20;13.27;;;6.70;91.40;;;6.80;61.85;100201.28;4949429;28;114500;-84
2022/01/11 09:19:15;;;;;;;25.53;14.33;;;7.00;91.50;;;6.80;62.73;100202.09;4955075;28;114807;-86
2022/01/11 09:21:42;;;;;;;23.60;14.77;;;6.20;91.40;;;6.85;62.94;100209.56;4950720;28;124033;-84
2022/01/11 09:24:11;;;;;;;22.67;14.40;;;6.20;91.70;;;6.87;62.72;100212.91;4954910;28;122775;-86
2022/01/11 09:26:39;;;;;;;22.83;12.60;;;7.40;92.10;;;6.91;63.06;100214.06;4948464;28;114152;-84
2022/01/11 09:29:27;;;;;;;25.30;13.67;;;6.30;91.70;;;6.99;63.02;100210.88;4948946;28;113966;-86
2022/01/11 09:31:57;;;;;;;18.10;11.30;;;6.40;91.80;;;7.07;63.01;100212.38;4929636;28;124029;-83
2022/01/11 09:34:24;;;;;;;21.20;12.17;;;6.50;91.80;;;7.11;62.22;100207.19;4929501;28;123240;-87
2022/01/11 09:36:51;;;;;;;19.70;11.93;;;6.50;91.50;;;7.12;62.26;100211.56;4930116;28;114253;-86
2022/01/11 09:39:19;;;;;;;18.20;10.90;;;6.50;91.40;;;7.11;62.48;100218.19;4930696;28;113977;-84
2022/01/11 09:41:46;;;;;;;20.77;10.97;;;6.50;91.30;;;7.11;61.71;100209.94;4931478;28;124030;-80
2022/01/11 09:44:13;;;;;;;14.80;10.37;;;6.50;91.20;;;7.13;61.95;100210.50;4936823;28;124260;-86
2022/01/11 09:46:39;;;;;;;17.40;11.00;;;6.50;91.10;;;7.13;61.72;100221.50;4919420;28;114068;-86
2022/01/11 09:49:06;;;;;;;15.70;10.77;;;6.60;90.90;;;7.12;61.66;100208.84;4927008;28;113666;-83
2022/01/11 09:51:35;;;;;;;19.17;10.10;;;6.70;90.90;;;7.11;61.63;100219.00;4939478;28;123705;-85
2022/01/11 09:54:04;;;;;;;20.13;11.47;;;6.60;90.90;;;7.14;61.16;100217.66;4925657;28;123594;-85
2022/01/11 09:56:36;;;;;;;22.83;11.40;;;6.60;90.80;;;7.14;60.96;100217.66;4928101;28;115544;-86
2022/01/11 09:59:06;;;;;;;17.80;11.20;;;6.60;90.70;;;7.16;61.08;100221.00;4927115;28;114945;-84
2022/01/11 10:01:35;;;;;;;18.17;10.73;;;6.60;90.70;;;7.17;60.78;100219.91;4921104;28;123889;-86
2022/01/11 10:04:12;;;;;;;15.67;11.30;;;6.60;90.70;;;7.21;61.02;100223.81;4914154;28;123560;-87
2022/01/11 10:06:44;;;;;;;21.57;11.77;;;6.60;90.60;;;7.20;60.42;100214.75;4928360;28;114756;-86
2022/01/11 10:09:22;;;;;;;19.03;11.00;;;6.60;90.60;;;7.21;60.09;100212.81;4939699;28;113966;-84
2022/01/11 10:11:55;;;;;;;16.90;11.43;;;6.60;90.50;;;7.20;60.75;100216.63;4949373;28;123695;-87
2022/01/11 10:14:35;;;;;;;19.00;11.73;;;6.90;90.60;;;7.22;60.56;100215.28;4949740;28;124940;-88
2022/01/11 10:17:36;;;;;;;22.50;12.90;;;6.60;90.40;;;7.23;60.20;100221.66;4983473;28;114440;-86